Time;durP1;ratioP1;P1;durP2;ratioP2;P2;SDS_P1;SDS_P2;PMS_P1;PMS_P2;Temp;Humidity;BMP_temperature;BMP_pressure;BME280_temperature;BME280_humidity;BME280_pressure;Samples;Min_cycle;Max_cycle;Signal;HPM_P1;HPM_P2
2022/10/22 00:02:20;;;;;;;11.70;10.50;;;14.60;99.90;;;;;;4928727;29;20224;-75
2022/10/22 00:04:47;;;;;;;12.90;11.70;;;14.60;99.90;;;;;;4938327;29;20404;-79
2022/10/22 00:07:13;;;;;;;11.57;10.17;;;14.60;99.90;;;;;;4945567;29;20217;-73
2022/10/22 00:09:38;;;;;;;12.57;11.23;;;14.60;99.90;;;;;;4947213;29;20194;-74
2022/10/22 00:12:04;;;;;;;13.27;11.63;;;14.60;99.90;;;;;;4942503;29;20200;-74
2022/10/22 00:14:30;;;;;;;14.23;12.73;;;14.60;99.90;;;;;;4935348;29;20285;-74
2022/10/22 00:16:55;;;;;;;12.57;11.43;;;14.60;99.90;;;;;;4945534;29;20275;-79
2022/10/22 00:19:21;;;;;;;12.47;11.17;;;14.60;99.90;;;;;;4938848;29;20224;-75
2022/10/22 00:21:46;;;;;;;12.60;11.27;;;14.60;99.90;;;;;;4945240;29;20594;-70
2022/10/22 00:24:12;;;;;;;12.10;10.80;;;14.60;99.90;;;;;;4944586;29;20190;-71
2022/10/22 00:26:39;;;;;;;13.33;11.97;;;14.60;99.90;;;;;;4934069;29;20966;-70
2022/10/22 00:29:04;;;;;;;13.33;10.13;;;14.70;99.90;;;;;;4938099;29;20206;-70
2022/10/22 00:31:30;;;;;;;11.73;10.07;;;14.60;99.90;;;;;;4937762;29;20806;-70
2022/10/22 00:33:55;;;;;;;13.67;11.43;;;14.70;99.90;;;;;;4945230;29;20198;-70
2022/10/22 00:36:21;;;;;;;10.33;9.20;;;14.70;99.90;;;;;;4928958;29;20244;-69
2022/10/22 00:38:46;;;;;;;13.60;11.83;;;14.70;99.90;;;;;;4944510;29;20198;-69
2022/10/22 00:41:12;;;;;;;11.37;10.23;;;14.70;99.90;;;;;;4931469;29;20212;-70
2022/10/22 00:44:02;;;;;;;11.43;10.00;;;14.70;99.90;;;;;;4937364;29;20281;-71
2022/10/22 00:46:28;;;;;;;11.80;10.60;;;14.70;99.90;;;;;;4936870;29;20234;-71
2022/10/22 00:48:57;;;;;;;11.40;10.20;;;14.60;99.90;;;;;;4938874;29;20227;-70
2022/10/22 00:51:27;;;;;;;10.50;9.50;;;14.60;99.90;;;;;;4940969;29;20202;-69
2022/10/22 00:53:55;;;;;;;12.30;11.00;;;14.60;99.90;;;;;;4945347;28;20210;-70
2022/10/22 00:56:23;;;;;;;11.70;10.03;;;14.60;99.90;;;;;;4924132;29;20198;-70
2022/10/22 00:58:52;;;;;;;12.97;11.43;;;14.50;99.90;;;;;;4946431;29;20190;-70
2022/10/22 01:01:21;;;;;;;14.43;11.00;;;14.50;99.90;;;;;;4935131;29;20202;-72
2022/10/22 01:03:47;;;;;;;15.53;12.17;;;14.50;99.90;;;;;;4945976;29;20198;-72
2022/10/22 01:06:21;;;;;;;13.33;11.93;;;14.50;99.90;;;;;;4944086;28;20245;-72
2022/10/22 01:09:07;;;;;;;12.63;11.43;;;14.50;99.90;;;;;;4938578;29;20216;-71
2022/10/22 01:11:54;;;;;;;12.10;10.97;;;14.40;99.90;;;;;;4939774;29;20673;-71
2022/10/22 01:14:50;;;;;;;14.73;12.17;;;14.40;99.90;;;;;;4933722;29;20559;-71
2022/10/22 01:17:19;;;;;;;13.97;12.50;;;14.40;99.90;;;;;;4931338;29;20241;-69
2022/10/22 01:19:58;;;;;;;13.77;12.43;;;14.40;99.90;;;;;;4945418;29;20704;-70
2022/10/22 01:22:29;;;;;;;15.73;12.63;;;14.40;99.90;;;;;;4933461;29;20510;-71
2022/10/22 01:25:13;;;;;;;17.13;13.07;;;14.40;99.90;;;;;;4944643;29;20186;-70
2022/10/22 01:27:55;;;;;;;14.63;12.80;;;14.40;99.90;;;;;;4934954;29;20373;-68
2022/10/22 01:30:22;;;;;;;15.30;12.30;;;14.40;99.90;;;;;;4937977;29;20273;-69
2022/10/22 01:32:51;;;;;;;15.93;11.93;;;14.40;99.90;;;;;;4934540;29;20213;-68
2022/10/22 01:35:22;;;;;;;13.70;12.30;;;14.40;99.90;;;;;;4930788;29;20391;-70
2022/10/22 01:37:53;;;;;;;14.40;12.73;;;14.40;99.90;;;;;;4938521;29;20213;-70
2022/10/22 01:40:20;;;;;;;13.30;11.77;;;14.30;99.90;;;;;;4936773;29;20236;-70
2022/10/22 01:43:04;;;;;;;14.23;12.63;;;14.30;99.90;;;;;;4936267;29;20215;-70
2022/10/22 01:45:35;;;;;;;15.30;12.77;;;14.30;99.90;;;;;;4934843;29;20213;-71
2022/10/22 01:48:11;;;;;;;13.80;11.67;;;14.30;99.90;;;;;;4941434;29;20233;-69
2022/10/22 01:50:47;;;;;;;14.43;12.87;;;14.30;99.90;;;;;;4935125;29;20282;-71
2022/10/22 01:53:22;;;;;;;12.83;11.43;;;14.30;99.90;;;;;;4929789;28;20547;-71
2022/10/22 01:56:02;;;;;;;13.40;12.00;;;14.20;99.90;;;;;;4940595;29;20194;-74
2022/10/22 01:58:51;;;;;;;14.23;12.73;;;14.20;99.90;;;;;;4940890;29;20198;-71
2022/10/22 02:01:38;;;;;;;12.47;11.27;;;14.20;99.90;;;;;;4938069;29;20209;-69
2022/10/22 02:04:43;;;;;;;14.30;12.90;;;14.20;99.90;;;;;;4938211;28;20273;-71
2022/10/22 02:07:13;;;;;;;14.70;11.63;;;14.20;99.90;;;;;;4923181;29;20594;-72
2022/10/22 02:09:40;;;;;;;14.50;12.53;;;14.20;99.90;;;;;;4941699;29;20229;-71
2022/10/22 02:12:07;;;;;;;14.93;12.90;;;14.20;99.90;;;;;;4932600;29;20202;-70
2022/10/22 02:14:36;;;;;;;20.50;13.10;;;14.20;99.90;;;;;;4935281;29;20202;-70
2022/10/22 02:17:03;;;;;;;13.57;12.27;;;14.20;99.90;;;;;;4935454;29;20241;-70
2022/10/22 02:20:20;;;;;;;15.10;13.43;;;14.10;99.90;;;;;;4936998;29;20217;-74
2022/10/22 02:22:46;;;;;;;13.27;11.97;;;14.10;99.90;;;;;;4895404;29;20196;-74
2022/10/22 02:25:12;;;;;;;14.10;12.33;;;14.10;99.90;;;;;;4898590;29;20187;-71
2022/10/22 02:28:09;;;;;;;14.60;12.17;;;14.10;99.90;;;;;;4914035;29;20226;-70
2022/10/22 02:30:37;;;;;;;13.63;12.17;;;14.10;99.90;;;;;;4901535;29;20210;-71
2022/10/22 02:33:31;;;;;;;13.77;12.20;;;14.10;99.90;;;;;;4941944;29;20394;-69
2022/10/22 02:35:59;;;;;;;14.43;12.93;;;14.10;99.90;;;;;;4931268;29;20202;-70
2022/10/22 02:38:25;;;;;;;13.20;11.57;;;14.10;99.90;;;;;;4943884;29;20205;-71
2022/10/22 02:40:51;;;;;;;17.00;12.13;;;14.10;99.90;;;;;;4942978;29;20293;-71
2022/10/22 02:43:17;;;;;;;12.37;10.90;;;14.10;99.90;;;;;;4942317;29;20297;-71
2022/10/22 02:45:43;;;;;;;12.43;10.87;;;14.10;99.90;;;;;;4934900;29;20202;-71
2022/10/22 02:48:09;;;;;;;13.73;10.73;;;14.10;99.90;;;;;;4940131;29;20227;-71
2022/10/22 02:50:34;;;;;;;11.70;10.50;;;14.10;99.90;;;;;;4939737;29;20199;-71
2022/10/22 02:53:00;;;;;;;14.07;11.30;;;14.10;99.90;;;;;;4933669;29;20234;-72
2022/10/22 02:55:25;;;;;;;12.83;11.53;;;14.10;99.90;;;;;;4941342;29;20220;-71
2022/10/22 02:57:51;;;;;;;10.20;9.20;;;14.10;99.90;;;;;;4938492;29;20435;-72
2022/10/22 03:00:17;;;;;;;12.63;11.17;;;14.10;99.90;;;;;;4942666;29;20613;-72
2022/10/22 03:02:42;;;;;;;15.83;12.40;;;14.10;99.90;;;;;;4936242;29;20286;-71
2022/10/22 03:05:09;;;;;;;12.60;11.23;;;14.10;99.90;;;;;;4940454;29;20254;-72
2022/10/22 03:07:34;;;;;;;12.53;11.33;;;14.10;99.90;;;;;;4930121;29;20240;-71
2022/10/22 03:09:59;;;;;;;13.87;11.30;;;14.10;99.90;;;;;;4934859;29;20191;-71
2022/10/22 03:12:25;;;;;;;11.77;10.57;;;14.10;99.90;;;;;;4942260;29;20218;-71
2022/10/22 03:14:50;;;;;;;14.20;12.00;;;14.10;99.90;;;;;;4936909;29;20230;-71
2022/10/22 03:17:16;;;;;;;15.43;12.13;;;14.10;99.90;;;;;;4941689;29;20548;-71
2022/10/22 03:19:42;;;;;;;13.13;11.77;;;14.10;99.90;;;;;;4941968;29;20210;-71
2022/10/22 03:22:19;;;;;;;12.57;11.27;;;14.10;99.90;;;;;;4941987;29;20265;-71
2022/10/22 03:24:49;;;;;;;11.20;10.10;;;14.10;99.90;;;;;;4930960;29;20674;-72
2022/10/22 03:27:18;;;;;;;11.67;10.30;;;14.10;99.90;;;;;;4939665;29;20194;-72
2022/10/22 03:29:45;;;;;;;13.27;10.60;;;14.10;99.90;;;;;;4938587;29;20194;-72
2022/10/22 03:32:12;;;;;;;13.00;10.73;;;14.10;99.90;;;;;;4940682;29;20198;-72
2022/10/22 03:34:37;;;;;;;13.40;11.83;;;14.10;99.90;;;;;;4946731;29;20194;-72
2022/10/22 03:37:03;;;;;;;13.20;11.23;;;14.10;99.90;;;;;;4935999;29;20554;-71
2022/10/22 03:39:31;;;;;;;13.27;11.13;;;14.10;99.90;;;;;;4938145;29;20560;-71
2022/10/22 03:41:57;;;;;;;13.83;10.80;;;14.10;99.90;;;;;;4937742;29;20574;-71
2022/10/22 03:44:24;;;;;;;13.60;12.10;;;14.10;99.90;;;;;;4938176;29;20194;-72
2022/10/22 03:46:50;;;;;;;13.90;12.03;;;14.10;99.90;;;;;;4937822;29;20233;-71
2022/10/22 03:49:15;;;;;;;12.27;10.17;;;14.10;99.90;;;;;;4937960;29;20220;-71
2022/10/22 03:51:41;;;;;;;13.00;10.03;;;14.10;99.90;;;;;;4945642;29;20226;-71
2022/10/22 03:54:06;;;;;;;11.67;10.47;;;14.10;99.90;;;;;;4941520;29;20307;-70
2022/10/22 03:56:32;;;;;;;12.63;11.37;;;14.10;99.90;;;;;;4938832;29;20242;-72
2022/10/22 03:58:59;;;;;;;12.27;11.00;;;14.10;99.90;;;;;;4942922;29;20198;-71
2022/10/22 04:01:28;;;;;;;11.50;10.40;;;14.10;99.90;;;;;;4940117;29;20190;-71
2022/10/22 04:03:57;;;;;;;12.77;11.20;;;14.10;99.90;;;;;;4946975;29;20788;-72
2022/10/22 04:06:23;;;;;;;12.17;10.63;;;14.10;99.90;;;;;;4935296;29;20197;-71
2022/10/22 04:08:49;;;;;;;12.33;11.13;;;14.00;99.90;;;;;;4937161;29;20294;-71
2022/10/22 04:11:16;;;;;;;15.97;13.13;;;14.00;99.90;;;;;;4937293;29;20187;-70
2022/10/22 04:13:42;;;;;;;16.37;11.70;;;14.00;99.90;;;;;;4939791;29;20187;-72
2022/10/22 04:16:12;;;;;;;14.97;12.93;;;14.00;99.90;;;;;;4946888;29;20205;-70
2022/10/22 04:18:38;;;;;;;19.50;12.37;;;14.00;99.90;;;;;;4945162;29;20205;-71
2022/10/22 04:21:05;;;;;;;14.70;11.20;;;14.00;99.90;;;;;;4935799;29;20199;-71
2022/10/22 04:23:31;;;;;;;13.80;11.47;;;14.00;99.90;;;;;;4935904;29;20199;-71
2022/10/22 04:26:01;;;;;;;14.87;11.80;;;14.00;99.90;;;;;;4941316;29;20193;-71
2022/10/22 04:28:27;;;;;;;12.53;11.23;;;14.00;99.90;;;;;;4942025;28;20247;-72
2022/10/22 04:30:52;;;;;;;14.10;12.60;;;14.00;99.90;;;;;;4937699;29;20187;-72
2022/10/22 04:33:18;;;;;;;12.63;10.70;;;13.90;99.90;;;;;;4944630;29;20677;-74
2022/10/22 04:35:44;;;;;;;13.00;11.43;;;13.90;99.90;;;;;;4940991;29;20228;-73
2022/10/22 04:38:11;;;;;;;14.17;12.50;;;13.90;99.90;;;;;;4934530;29;20257;-74
2022/10/22 04:40:36;;;;;;;11.40;10.20;;;14.00;99.90;;;;;;4935358;29;20600;-73
2022/10/22 04:43:02;;;;;;;15.53;11.73;;;14.00;99.90;;;;;;4942042;29;20581;-73
2022/10/22 04:45:27;;;;;;;12.93;11.63;;;13.90;99.90;;;;;;4937631;29;20190;-74
2022/10/22 04:47:52;;;;;;;13.23;11.83;;;14.00;99.90;;;;;;4944230;29;20538;-75
2022/10/22 04:50:18;;;;;;;12.90;10.87;;;13.90;99.90;;;;;;4941469;29;20279;-73
2022/10/22 04:52:44;;;;;;;12.53;10.50;;;13.90;99.90;;;;;;4934977;28;20213;-70
2022/10/22 04:55:09;;;;;;;13.07;11.63;;;13.90;99.90;;;;;;4946242;29;20198;-72
2022/10/22 04:57:35;;;;;;;13.20;11.80;;;13.90;99.90;;;;;;4939325;29;20304;-72
2022/10/22 05:00:00;;;;;;;13.33;12.03;;;13.90;99.90;;;;;;4941328;29;21122;-70
2022/10/22 05:02:26;;;;;;;11.93;10.73;;;13.90;99.90;;;;;;4937627;29;20210;-72
2022/10/22 05:04:51;;;;;;;12.37;10.67;;;13.90;99.90;;;;;;4941888;29;20212;-71
2022/10/22 05:07:17;;;;;;;11.97;10.83;;;13.80;99.90;;;;;;4944201;29;20264;-70
2022/10/22 05:09:42;;;;;;;12.43;11.13;;;13.80;99.90;;;;;;4945761;29;20198;-70
2022/10/22 05:12:08;;;;;;;16.13;11.33;;;13.80;99.90;;;;;;4929324;29;20664;-70
2022/10/22 05:14:33;;;;;;;14.87;13.20;;;13.80;99.90;;;;;;4944575;29;20272;-70
2022/10/22 05:16:59;;;;;;;12.50;11.20;;;13.80;99.90;;;;;;4934143;29;20696;-70
2022/10/22 05:19:26;;;;;;;12.67;11.37;;;13.70;99.90;;;;;;4942575;29;20729;-69
2022/10/22 05:21:54;;;;;;;12.27;10.97;;;13.70;99.90;;;;;;4938405;29;20259;-70
2022/10/22 05:24:20;;;;;;;12.80;11.50;;;13.70;99.90;;;;;;4945658;29;20620;-70
2022/10/22 05:26:49;;;;;;;13.67;12.30;;;13.70;99.90;;;;;;4943564;29;20225;-70
2022/10/22 05:29:15;;;;;;;13.33;12.00;;;13.70;99.90;;;;;;4945853;29;20257;-70
2022/10/22 05:31:40;;;;;;;13.87;11.47;;;13.70;99.90;;;;;;4934699;29;20255;-69
2022/10/22 05:34:06;;;;;;;13.17;11.83;;;13.70;99.90;;;;;;4945330;29;20202;-69
2022/10/22 05:36:32;;;;;;;12.13;10.93;;;13.70;99.90;;;;;;4938695;29;20677;-69
2022/10/22 05:38:57;;;;;;;12.70;11.40;;;13.70;99.90;;;;;;4944423;28;20693;-70
2022/10/22 05:41:24;;;;;;;12.00;10.80;;;13.70;99.90;;;;;;4941254;29;20187;-70
2022/10/22 05:43:53;;;;;;;14.43;12.47;;;13.70;99.90;;;;;;4937026;29;20305;-70
2022/10/22 05:46:21;;;;;;;13.93;12.53;;;13.70;99.90;;;;;;4941104;29;20353;-68
2022/10/22 05:48:55;;;;;;;13.00;11.67;;;13.60;99.90;;;;;;4942505;29;20719;-70
2022/10/22 05:51:21;;;;;;;13.87;12.33;;;13.60;99.90;;;;;;4937305;29;20194;-69
2022/10/22 05:53:52;;;;;;;13.47;12.00;;;13.60;99.90;;;;;;4941014;28;20211;-69
2022/10/22 05:56:17;;;;;;;13.77;11.70;;;13.60;99.90;;;;;;4943701;29;20234;-70
2022/10/22 05:58:43;;;;;;;17.53;12.27;;;13.60;99.90;;;;;;4938186;29;20207;-69
2022/10/22 06:01:16;;;;;;;13.40;11.20;;;13.60;99.90;;;;;;4938798;29;20581;-69
2022/10/22 06:03:42;;;;;;;15.17;10.63;;;13.60;99.90;;;;;;4939274;29;20202;-69
2022/10/22 06:06:19;;;;;;;12.07;10.57;;;13.60;99.90;;;;;;4943580;29;20269;-70
2022/10/22 06:08:46;;;;;;;13.13;11.80;;;13.60;99.90;;;;;;4940576;29;20226;-69
2022/10/22 06:11:12;;;;;;;13.40;12.00;;;13.60;99.90;;;;;;4936497;29;20201;-70
2022/10/22 06:13:38;;;;;;;14.40;12.30;;;13.60;99.90;;;;;;4937292;29;20206;-70
2022/10/22 06:16:03;;;;;;;15.77;11.67;;;13.60;99.90;;;;;;4935406;29;20216;-70
2022/10/22 06:18:29;;;;;;;14.07;12.67;;;13.60;99.90;;;;;;4942731;29;20213;-70
2022/10/22 06:20:54;;;;;;;13.17;11.77;;;13.60;99.90;;;;;;4935493;29;20200;-70
2022/10/22 06:23:20;;;;;;;14.40;12.03;;;13.60;99.90;;;;;;4937337;29;20575;-71
2022/10/22 06:25:56;;;;;;;13.57;11.57;;;13.70;99.90;;;;;;4936349;29;20206;-70
2022/10/22 06:28:21;;;;;;;13.30;11.93;;;13.70;99.90;;;;;;4938599;29;20698;-70
2022/10/22 06:30:47;;;;;;;14.70;13.10;;;13.70;99.90;;;;;;4934331;29;20220;-70
2022/10/22 06:33:12;;;;;;;12.37;10.53;;;13.80;99.90;;;;;;4930958;29;20699;-70
2022/10/22 06:35:38;;;;;;;12.83;11.53;;;13.80;99.90;;;;;;4938317;29;20202;-68
2022/10/22 06:38:03;;;;;;;12.27;10.83;;;13.90;99.90;;;;;;4935503;29;20217;-69
2022/10/22 06:40:28;;;;;;;15.23;12.43;;;13.90;99.90;;;;;;4935428;29;20249;-69
2022/10/22 06:42:54;;;;;;;11.90;10.70;;;13.90;99.90;;;;;;4936346;29;20241;-69
2022/10/22 06:45:19;;;;;;;12.93;11.40;;;13.90;99.90;;;;;;4935407;29;20225;-69
2022/10/22 06:47:46;;;;;;;13.23;10.97;;;13.90;99.90;;;;;;4938132;29;20343;-69
2022/10/22 06:50:12;;;;;;;13.30;11.93;;;14.00;99.90;;;;;;4935460;29;20201;-69
2022/10/22 06:52:37;;;;;;;13.27;11.80;;;14.00;99.90;;;;;;4945860;29;21856;-69
2022/10/22 06:55:03;;;;;;;12.53;11.33;;;14.00;99.90;;;;;;4939906;29;20209;-72
2022/10/22 06:57:29;;;;;;;13.37;11.93;;;14.10;99.90;;;;;;4947045;28;20194;-67
2022/10/22 06:59:55;;;;;;;14.00;10.90;;;14.10;99.90;;;;;;4939929;29;20194;-71
2022/10/22 07:02:20;;;;;;;13.50;11.20;;;14.10;99.90;;;;;;4941385;29;20213;-72
2022/10/22 07:04:46;;;;;;;11.90;10.70;;;14.20;99.90;;;;;;4947178;29;20575;-70
2022/10/22 07:07:11;;;;;;;11.87;9.67;;;14.20;99.90;;;;;;4938464;29;20206;-71
2022/10/22 07:09:38;;;;;;;13.00;11.17;;;14.20;99.90;;;;;;4946604;29;20228;-70
2022/10/22 07:12:03;;;;;;;11.57;10.37;;;14.20;99.90;;;;;;4939971;29;20648;-67
2022/10/22 07:14:29;;;;;;;12.13;11.00;;;14.20;99.90;;;;;;4947610;29;20198;-68
2022/10/22 07:16:54;;;;;;;10.97;9.67;;;14.30;99.90;;;;;;4933212;29;20198;-65
2022/10/22 07:19:20;;;;;;;13.23;11.53;;;14.30;99.90;;;;;;4937464;29;20198;-66
2022/10/22 07:21:45;;;;;;;12.37;10.00;;;14.30;99.90;;;;;;4942881;29;20198;-66
2022/10/22 07:24:11;;;;;;;10.83;9.73;;;14.40;99.90;;;;;;4931240;29;20762;-67
2022/10/22 07:26:36;;;;;;;11.17;10.07;;;14.40;99.90;;;;;;4931163;29;20224;-68
2022/10/22 07:29:03;;;;;;;10.87;9.53;;;14.40;99.90;;;;;;4931697;29;20223;-67
2022/10/22 07:31:29;;;;;;;11.63;10.40;;;14.40;99.90;;;;;;4913954;29;20190;-68
2022/10/22 07:33:54;;;;;;;11.00;9.77;;;14.50;99.90;;;;;;4927656;29;20209;-65
2022/10/22 07:36:20;;;;;;;10.93;9.90;;;14.60;99.90;;;;;;4930269;29;20626;-68
2022/10/22 07:38:47;;;;;;;11.37;10.13;;;14.60;99.90;;;;;;4933555;29;20215;-67
2022/10/22 07:41:15;;;;;;;12.57;10.47;;;14.60;99.90;;;;;;4931323;29;20234;-69
2022/10/22 07:43:41;;;;;;;11.63;9.93;;;14.70;99.90;;;;;;4930641;29;20226;-67
2022/10/22 07:46:07;;;;;;;11.57;10.40;;;14.70;99.90;;;;;;4939430;29;20225;-68
2022/10/22 07:48:34;;;;;;;17.13;11.37;;;14.70;99.90;;;;;;4929988;29;20277;-67
2022/10/22 07:50:59;;;;;;;10.83;9.67;;;14.80;99.90;;;;;;4930221;29;20274;-66
2022/10/22 07:53:25;;;;;;;11.93;10.80;;;14.90;99.90;;;;;;4941966;28;20225;-79
2022/10/22 07:55:51;;;;;;;10.33;9.20;;;14.90;99.90;;;;;;4940286;29;20526;-80
2022/10/22 07:58:18;;;;;;;11.00;10.00;;;14.90;99.90;;;;;;4933125;29;20549;-80
2022/10/22 08:00:44;;;;;;;13.63;10.13;;;15.00;99.90;;;;;;4946677;29;20209;-80
2022/10/22 08:03:11;;;;;;;12.00;10.80;;;15.00;99.90;;;;;;4943902;28;20229;-81
2022/10/22 08:05:38;;;;;;;11.07;9.40;;;14.90;99.90;;;;;;4942265;29;20209;-81
2022/10/22 08:08:05;;;;;;;10.70;9.70;;;14.90;99.90;;;;;;4937492;29;20226;-80
2022/10/22 08:10:31;;;;;;;13.53;10.80;;;14.90;99.90;;;;;;4942971;29;20197;-80
2022/10/22 08:12:57;;;;;;;10.97;9.87;;;15.00;99.90;;;;;;4944833;29;20206;-80
2022/10/22 08:15:24;;;;;;;11.70;10.50;;;15.00;99.90;;;;;;4940292;29;20195;-80
2022/10/22 08:17:50;;;;;;;11.47;10.33;;;15.00;99.90;;;;;;4946408;29;20214;-79
2022/10/22 08:20:15;;;;;;;11.27;10.07;;;15.00;99.90;;;;;;4945418;29;20198;-80
2022/10/22 08:22:41;;;;;;;11.27;10.13;;;15.00;99.90;;;;;;4938793;29;20205;-81
2022/10/22 08:25:07;;;;;;;13.63;11.00;;;15.00;99.90;;;;;;4935380;29;20201;-78
2022/10/22 08:27:33;;;;;;;12.30;10.53;;;15.00;99.90;;;;;;4944345;29;20209;-73
2022/10/22 08:29:58;;;;;;;10.77;9.57;;;15.00;99.90;;;;;;4941455;29;20614;-75
2022/10/22 08:32:24;;;;;;;11.73;10.53;;;15.10;99.90;;;;;;4930482;29;20231;-71
2022/10/22 08:34:49;;;;;;;10.20;9.30;;;15.10;99.90;;;;;;4928249;29;20198;-76
2022/10/22 08:37:16;;;;;;;11.97;9.47;;;15.00;99.90;;;;;;4940368;29;20198;-78
2022/10/22 08:39:41;;;;;;;10.97;9.87;;;15.10;99.90;;;;;;4943571;29;20462;-70
2022/10/22 08:42:34;;;;;;;12.33;10.90;;;15.10;99.90;;;;;;4935455;29;20209;-69
2022/10/22 08:45:14;;;;;;;11.70;10.13;;;15.10;99.90;;;;;;4928676;29;20230;-70
2022/10/22 08:47:58;;;;;;;13.30;10.83;;;15.10;99.90;;;;;;4936448;29;20693;-72
2022/10/22 08:50:34;;;;;;;10.50;9.20;;;15.10;99.90;;;;;;4932811;29;20286;-73
2022/10/22 08:53:04;;;;;;;11.17;9.63;;;15.10;99.90;;;;;;4933511;29;20309;-70
2022/10/22 08:55:30;;;;;;;11.87;10.37;;;15.20;99.90;;;;;;4936240;29;20191;-73
2022/10/22 08:58:05;;;;;;;11.77;9.10;;;15.20;99.90;;;;;;4930758;29;20214;-72
2022/10/22 09:00:59;;;;;;;11.23;10.03;;;15.30;99.90;;;;;;4942819;29;20198;-73
2022/10/22 09:03:49;;;;;;;11.00;10.00;;;15.30;99.90;;;;;;4928130;29;20203;-77
2022/10/22 09:06:22;;;;;;;10.97;9.77;;;15.30;99.90;;;;;;4940163;29;20297;-71
2022/10/22 09:08:49;;;;;;;13.00;9.80;;;15.30;99.90;;;;;;4936577;29;20291;-70
2022/10/22 09:11:18;;;;;;;14.87;10.50;;;15.20;99.90;;;;;;4936196;29;20858;-70
2022/10/22 09:13:45;;;;;;;11.77;10.67;;;15.20;99.90;;;;;;4941367;28;20673;-67
2022/10/22 09:16:39;;;;;;;13.50;10.00;;;15.30;99.90;;;;;;4928570;29;20199;-69
2022/10/22 09:19:27;;;;;;;11.53;10.43;;;15.30;99.90;;;;;;4931085;29;20734;-72
2022/10/22 09:22:03;;;;;;;10.90;9.80;;;15.40;99.90;;;;;;4935735;29;20198;-71
2022/10/22 09:24:36;;;;;;;10.30;9.30;;;15.40;99.90;;;;;;4935941;29;20232;-73
2022/10/22 09:27:13;;;;;;;11.73;10.33;;;15.50;99.90;;;;;;4936147;29;20249;-71
2022/10/22 09:29:39;;;;;;;10.90;9.80;;;15.50;99.90;;;;;;4942673;29;21117;-73
2022/10/22 09:32:05;;;;;;;10.50;9.40;;;15.60;99.90;;;;;;4945146;29;20205;-74
2022/10/22 09:34:31;;;;;;;10.93;9.93;;;15.50;99.90;;;;;;4943644;29;20210;-70
2022/10/22 09:37:06;;;;;;;12.20;11.00;;;15.50;99.90;;;;;;4939487;29;20537;-76
2022/10/22 09:39:35;;;;;;;10.33;9.33;;;15.60;99.90;;;;;;4933839;29;20336;-71
2022/10/22 09:42:01;;;;;;;12.27;10.60;;;15.70;99.90;;;;;;4929660;29;20260;-71
2022/10/22 09:44:27;;;;;;;13.07;9.90;;;15.80;99.90;;;;;;4937432;29;20302;-71
2022/10/22 09:46:53;;;;;;;10.83;9.73;;;15.90;99.90;;;;;;4935828;29;20676;-71
2022/10/22 09:49:22;;;;;;;10.87;9.87;;;16.00;99.90;;;;;;4940670;29;20665;-74
2022/10/22 09:51:56;;;;;;;10.17;9.03;;;16.10;99.90;;;;;;4935461;29;20276;-70
2022/10/22 09:54:31;;;;;;;10.37;9.00;;;16.10;99.90;;;;;;4924451;29;20308;-70
2022/10/22 09:57:20;;;;;;;9.87;8.70;;;16.10;99.90;;;;;;4935868;29;20201;-72
2022/10/22 09:59:51;;;;;;;11.60;10.40;;;16.10;99.90;;;;;;4940970;29;20206;-72
2022/10/22 10:02:20;;;;;;;11.90;10.03;;;16.10;99.90;;;;;;4934897;29;20657;-71
2022/10/22 10:04:49;;;;;;;11.37;8.73;;;16.10;99.90;;;;;;4939942;29;20202;-72
2022/10/22 10:07:30;;;;;;;12.27;9.60;;;16.10;99.90;;;;;;4929269;29;20198;-70
2022/10/22 10:09:56;;;;;;;10.07;9.17;;;16.10;99.90;;;;;;4927029;29;20298;-70
2022/10/22 10:12:44;;;;;;;9.80;8.80;;;16.10;99.90;;;;;;4926184;29;20198;-73
2022/10/22 10:15:32;;;;;;;11.07;9.93;;;16.10;99.90;;;;;;4932088;29;20493;-70
2022/10/22 10:18:32;;;;;;;10.87;9.87;;;16.10;99.90;;;;;;4928673;29;20207;-74
2022/10/22 10:21:24;;;;;;;10.57;9.47;;;16.10;99.90;;;;;;4930220;29;20195;-71
2022/10/22 10:24:03;;;;;;;12.40;10.20;;;16.10;99.90;;;;;;4929515;29;20198;-72
2022/10/22 10:26:51;;;;;;;10.57;9.47;;;16.20;99.90;;;;;;4937707;28;20191;-70
2022/10/22 10:29:34;;;;;;;12.00;10.03;;;16.20;99.90;;;;;;4929543;29;20237;-70
2022/10/22 10:32:15;;;;;;;12.67;10.40;;;16.30;99.90;;;;;;4927579;29;20203;-68
2022/10/22 10:35:19;;;;;;;10.47;9.37;;;16.40;99.90;;;;;;4923963;29;20194;-70
2022/10/22 10:38:14;;;;;;;11.83;10.33;;;16.40;99.90;;;;;;4926527;29;20194;-70
2022/10/22 10:40:50;;;;;;;12.07;10.63;;;16.30;99.90;;;;;;4926874;29;20205;-71
2022/10/22 10:43:47;;;;;;;10.83;9.70;;;16.40;99.90;;;;;;4930469;29;20573;-73
2022/10/22 10:46:22;;;;;;;10.90;9.83;;;16.40;99.90;;;;;;4908474;29;20250;-73
2022/10/22 10:48:54;;;;;;;13.53;10.93;;;16.30;99.90;;;;;;4923247;29;20996;-68
2022/10/22 10:51:51;;;;;;;14.50;11.53;;;16.40;99.90;;;;;;4927038;29;20199;-66
2022/10/22 10:54:51;;;;;;;14.07;11.13;;;16.40;99.90;;;;;;4924069;28;20639;-67
2022/10/22 10:57:40;;;;;;;11.33;9.70;;;16.60;99.90;;;;;;4925802;29;20191;-69
2022/10/22 11:00:14;;;;;;;13.37;11.03;;;16.70;99.90;;;;;;4927657;29;20206;-68
2022/10/22 11:03:16;;;;;;;12.67;10.10;;;16.80;99.90;;;;;;4927817;29;20198;-69
2022/10/22 11:05:51;;;;;;;11.40;10.37;;;16.90;99.90;;;;;;4926761;29;20206;-69
2022/10/22 11:08:33;;;;;;;12.37;11.20;;;17.00;99.90;;;;;;4926903;29;20486;-69
2022/10/22 11:11:22;;;;;;;13.67;11.50;;;17.00;99.90;;;;;;4924189;29;20285;-69
2022/10/22 11:14:17;;;;;;;12.67;11.37;;;17.00;99.90;;;;;;4924312;29;20297;-72
2022/10/22 11:16:54;;;;;;;14.90;11.70;;;17.10;99.90;;;;;;4926257;29;20191;-70
2022/10/22 11:19:31;;;;;;;14.53;11.60;;;17.40;99.90;;;;;;4925695;29;20289;-71
2022/10/22 11:22:04;;;;;;;13.03;11.70;;;17.60;99.90;;;;;;4937328;29;20249;-72
2022/10/22 11:24:38;;;;;;;13.20;11.97;;;17.50;99.90;;;;;;4939641;29;20202;-72
2022/10/22 11:27:28;;;;;;;13.67;11.97;;;17.50;99.90;;;;;;4935101;29;20697;-72
2022/10/22 11:30:02;;;;;;;12.90;11.60;;;17.50;99.90;;;;;;4928543;29;20674;-73
2022/10/22 11:32:29;;;;;;;11.80;10.60;;;17.60;99.90;;;;;;4924272;29;20199;-72
2022/10/22 11:35:05;;;;;;;14.27;12.23;;;17.90;99.90;;;;;;4925946;29;20203;-72
2022/10/22 11:37:34;;;;;;;12.67;11.17;;;18.30;99.90;;;;;;4911298;29;20195;-72
2022/10/22 11:40:06;;;;;;;12.47;11.17;;;18.40;99.90;;;;;;4940264;29;20648;-72
2022/10/22 11:42:43;;;;;;;12.67;9.83;;;18.90;99.90;;;;;;4939181;29;20195;-73
2022/10/22 11:45:15;;;;;;;14.30;10.23;;;19.30;99.90;;;;;;4936394;29;20203;-70
2022/10/22 11:48:03;;;;;;;10.30;9.30;;;19.50;99.90;;;;;;4945514;29;20260;-76
2022/10/22 11:50:47;;;;;;;11.47;9.90;;;19.20;99.90;;;;;;4922720;29;20199;-71
2022/10/22 11:53:12;;;;;;;12.97;9.03;;;19.30;99.90;;;;;;4929512;29;20205;-71
2022/10/22 11:55:54;;;;;;;15.03;8.87;;;19.60;99.90;;;;;;4930229;29;20610;-71
2022/10/22 11:58:38;;;;;;;10.07;8.07;;;19.80;99.90;;;;;;4932890;29;20214;-71
2022/10/22 12:01:06;;;;;;;10.97;9.70;;;20.20;99.90;;;;;;4943985;29;20192;-71
2022/10/22 12:03:31;;;;;;;9.10;8.20;;;20.40;99.90;;;;;;4935400;29;20735;-72
2022/10/22 12:06:14;;;;;;;8.90;7.07;;;20.70;99.90;;;;;;4932798;29;20227;-71
2022/10/22 12:08:42;;;;;;;8.03;6.83;;;21.10;99.90;;;;;;4934713;29;20969;-75
2022/10/22 12:11:11;;;;;;;7.50;6.70;;;21.50;99.90;;;;;;4947908;29;20204;-69
2022/10/22 12:13:57;;;;;;;9.43;6.57;;;21.40;99.90;;;;;;4936378;29;20296;-69
2022/10/22 12:16:34;;;;;;;9.40;7.27;;;21.10;99.90;;;;;;4937885;29;20188;-69
2022/10/22 12:19:22;;;;;;;7.03;6.13;;;21.00;99.90;;;;;;4946358;29;20215;-80
2022/10/22 12:21:57;;;;;;;8.13;6.03;;;21.00;99.90;;;;;;4937940;29;20206;-81
2022/10/22 12:24:25;;;;;;;6.07;5.43;;;21.30;99.90;;;;;;4930441;29;20202;-79
2022/10/22 12:26:51;;;;;;;7.07;5.70;;;21.70;99.90;;;;;;4942146;29;20194;-81
2022/10/22 12:29:18;;;;;;;8.73;5.93;;;21.80;99.90;;;;;;4947951;29;20226;-78
2022/10/22 12:31:45;;;;;;;6.00;5.50;;;21.80;99.90;;;;;;4947250;29;20187;-85
2022/10/22 12:34:17;;;;;;;7.80;6.10;;;21.90;99.90;;;;;;4937461;29;20201;-80
2022/10/22 12:36:43;;;;;;;5.90;4.87;;;22.00;99.90;;;;;;4943970;29;20202;-79
2022/10/22 12:39:13;;;;;;;7.10;4.70;;;22.50;99.90;;;;;;4942395;29;20205;-85
2022/10/22 12:41:38;;;;;;;7.60;4.27;;;23.00;99.90;;;;;;4939104;29;20269;-84
2022/10/22 12:44:04;;;;;;;4.50;4.10;;;23.00;99.90;;;;;;4945989;29;20302;-85
2022/10/22 12:46:33;;;;;;;7.47;4.55;;;23.60;99.90;;;;;;4947831;29;20222;-82
2022/10/22 12:49:05;;;;;;;3.88;3.47;;;24.00;99.90;;;;;;4938296;28;20614;-80
2022/10/22 12:51:31;;;;;;;4.82;4.03;;;24.20;99.90;;;;;;4945351;29;20205;-79